createdAt,value
2018-03-11T00:00:49.061Z,0.00
2018-03-11T00:01:48.934Z,0.00
2018-03-11T00:02:48.803Z,0.00
2018-03-11T00:03:48.671Z,0.00
2018-03-11T00:04:48.549Z,0.00
2018-03-11T00:05:48.418Z,0.00
2018-03-11T00:06:48.290Z,0.00
2018-03-11T00:07:48.157Z,0.00
2018-03-11T00:08:48.029Z,0.00
2018-03-11T00:09:47.899Z,0.00
2018-03-11T00:10:47.775Z,0.00
2018-03-11T00:11:47.639Z,0.00
2018-03-11T00:12:47.527Z,0.00
2018-03-11T00:13:47.382Z,0.00
2018-03-11T00:14:47.252Z,0.00
2018-03-11T00:15:47.123Z,0.00
2018-03-11T00:16:46.993Z,0.00
2018-03-11T00:17:46.871Z,0.00
2018-03-11T00:18:46.736Z,0.00
2018-03-11T00:19:46.609Z,0.00
2018-03-11T00:20:46.480Z,0.00
2018-03-11T00:21:46.349Z,0.00
2018-03-11T00:22:46.220Z,0.00
2018-03-11T00:23:46.090Z,0.00
2018-03-11T00:24:45.967Z,0.00
2018-03-11T00:25:45.833Z,0.00
2018-03-11T00:26:45.705Z,0.00
2018-03-11T00:27:45.578Z,0.00
2018-03-11T00:28:45.445Z,0.00
2018-03-11T00:29:45.320Z,0.00
2018-03-11T00:30:45.188Z,0.00
2018-03-11T00:31:45.060Z,0.00
2018-03-11T00:32:44.931Z,0.00
2018-03-11T00:33:44.803Z,0.00
2018-03-11T00:34:44.689Z,0.00
2018-03-11T00:35:44.542Z,0.00
2018-03-11T00:36:44.415Z,0.00
2018-03-11T00:37:44.286Z,0.00
2018-03-11T00:38:44.173Z,0.00
2018-03-11T00:39:44.026Z,0.00
2018-03-11T00:40:43.902Z,0.00
2018-03-11T00:41:43.776Z,0.00
2018-03-11T00:42:43.643Z,0.00
2018-03-11T00:43:43.512Z,0.00
2018-03-11T00:44:43.383Z,0.00
2018-03-11T00:45:43.256Z,0.00
2018-03-11T00:46:43.123Z,0.00
2018-03-11T00:47:42.998Z,0.00
2018-03-11T00:48:42.869Z,0.00
2018-03-11T00:49:42.738Z,0.00
2018-03-11T00:50:42.607Z,0.00
2018-03-11T00:51:42.483Z,0.00
2018-03-11T00:52:42.353Z,0.00
2018-03-11T00:53:42.234Z,0.00
2018-03-11T00:54:42.094Z,0.00
2018-03-11T00:55:41.966Z,0.00
2018-03-11T00:56:41.838Z,0.00
2018-03-11T00:57:41.706Z,0.00
2018-03-11T00:58:41.579Z,0.00
2018-03-11T00:59:41.451Z,0.00
2018-03-11T01:00:41.322Z,0.00
2018-03-11T01:01:41.191Z,0.00
2018-03-11T01:02:41.062Z,0.00
2018-03-11T01:03:40.936Z,0.00
2018-03-11T01:04:40.805Z,0.00
2018-03-11T01:05:40.676Z,0.00
2018-03-11T01:06:40.549Z,0.00
2018-03-11T01:07:40.420Z,0.00
2018-03-11T01:08:40.289Z,0.00
2018-03-11T01:09:40.160Z,0.00
2018-03-11T01:10:40.033Z,0.00
2018-03-11T01:11:39.913Z,0.00
2018-03-11T01:12:39.775Z,0.00
2018-03-11T01:13:39.645Z,0.00
2018-03-11T01:14:39.518Z,0.00
2018-03-11T01:15:39.387Z,0.00
2018-03-11T01:16:39.262Z,0.00
2018-03-11T01:17:39.130Z,0.00
2018-03-11T01:18:39.002Z,0.00
2018-03-11T01:19:38.874Z,0.00
2018-03-11T01:20:38.744Z,0.00
2018-03-11T01:21:38.615Z,0.00
2018-03-11T01:22:38.485Z,0.00
2018-03-11T01:23:38.359Z,0.00
2018-03-11T01:24:38.229Z,0.00
2018-03-11T01:25:38.101Z,0.00
2018-03-11T01:26:37.971Z,0.00
2018-03-11T01:27:37.841Z,0.00
2018-03-11T01:28:37.712Z,0.00
2018-03-11T01:29:37.582Z,0.00
2018-03-11T01:30:37.452Z,0.00
2018-03-11T01:31:37.326Z,0.00
2018-03-11T01:32:37.196Z,0.00
2018-03-11T01:33:37.068Z,0.00
2018-03-11T01:34:36.940Z,0.00
2018-03-11T01:35:36.813Z,0.00
2018-03-11T01:36:36.682Z,0.00
2018-03-11T01:37:36.556Z,0.00
2018-03-11T01:38:36.423Z,0.00
2018-03-11T01:39:36.292Z,0.00
2018-03-11T01:40:36.163Z,0.00
2018-03-11T01:41:36.035Z,0.00
2018-03-11T01:42:35.905Z,0.00
2018-03-11T01:43:35.775Z,0.00
2018-03-11T01:44:35.646Z,0.00
2018-03-11T01:45:35.519Z,0.00
2018-03-11T01:46:35.391Z,0.00
2018-03-11T01:47:35.264Z,0.00
2018-03-11T01:48:35.129Z,0.00
2018-03-11T01:49:35.002Z,0.00
2018-03-11T01:50:34.871Z,0.00
2018-03-11T01:51:34.742Z,0.00
2018-03-11T01:52:34.614Z,0.00
2018-03-11T01:53:34.485Z,0.00
2018-03-11T01:54:34.357Z,0.00
2018-03-11T01:55:34.231Z,0.00
2018-03-11T01:56:34.098Z,0.00
2018-03-11T01:57:33.975Z,0.00
2018-03-11T01:58:33.843Z,0.00
2018-03-11T01:59:33.711Z,0.00
2018-03-11T02:00:33.584Z,0.00
2018-03-11T02:01:33.453Z,0.00
2018-03-11T02:02:33.324Z,0.00
2018-03-11T02:03:33.193Z,0.00
2018-03-11T02:04:33.090Z,0.00
2018-03-11T02:05:32.937Z,0.00
2018-03-11T02:06:32.809Z,0.00
2018-03-11T02:07:32.677Z,0.00
2018-03-11T02:08:32.548Z,0.00
2018-03-11T02:09:32.433Z,0.00
2018-03-11T02:10:32.288Z,0.00
2018-03-11T02:11:32.159Z,0.00
2018-03-11T02:12:32.032Z,0.00
2018-03-11T02:13:31.902Z,0.00
2018-03-11T02:14:31.772Z,0.00
2018-03-11T02:15:31.643Z,0.00
2018-03-11T02:16:31.516Z,0.00
2018-03-11T02:17:31.387Z,0.00
2018-03-11T02:18:31.256Z,0.00
2018-03-11T02:19:31.129Z,0.00
2018-03-11T02:20:30.999Z,0.00
2018-03-11T02:21:30.871Z,0.00
2018-03-11T02:22:30.739Z,0.00
2018-03-11T02:23:30.613Z,0.00
2018-03-11T02:24:30.482Z,0.00
2018-03-11T02:25:30.357Z,0.00
2018-03-11T02:26:30.224Z,0.00
2018-03-11T02:27:30.094Z,0.00
2018-03-11T02:28:29.967Z,0.00
2018-03-11T02:29:29.841Z,0.00
2018-03-11T02:30:29.708Z,0.00
2018-03-11T02:31:29.579Z,0.00
2018-03-11T02:32:29.449Z,0.00
2018-03-11T02:33:29.323Z,0.00
2018-03-11T02:34:29.193Z,0.00
2018-03-11T02:35:29.062Z,0.00
2018-03-11T02:36:28.934Z,0.00
2018-03-11T02:37:28.808Z,0.00
2018-03-11T02:38:28.674Z,0.00
2018-03-11T02:39:28.547Z,0.00
2018-03-11T02:40:28.418Z,0.00
2018-03-11T02:41:28.289Z,0.00
2018-03-11T02:42:28.160Z,0.00
2018-03-11T02:43:28.030Z,0.00
2018-03-11T02:44:27.901Z,0.00
2018-03-11T02:45:27.772Z,0.00
2018-03-11T02:46:27.644Z,0.00
2018-03-11T02:47:27.514Z,0.00
2018-03-11T02:48:27.389Z,0.00
2018-03-11T02:49:27.256Z,0.00
2018-03-11T02:50:27.124Z,0.00
2018-03-11T02:51:26.999Z,0.00
2018-03-11T02:52:26.867Z,0.00
2018-03-11T02:53:26.740Z,0.00
2018-03-11T02:54:26.608Z,0.00
2018-03-11T02:55:26.479Z,0.00
2018-03-11T02:56:26.353Z,0.00
2018-03-11T02:57:26.222Z,0.00
2018-03-11T02:58:26.090Z,0.00
2018-03-11T02:59:25.964Z,0.00
2018-03-11T03:00:25.835Z,0.00
2018-03-11T03:01:25.707Z,0.00
2018-03-11T03:02:25.574Z,0.00
2018-03-11T03:03:25.447Z,0.00
2018-03-11T03:04:25.318Z,0.00
2018-03-11T03:05:25.188Z,0.00
2018-03-11T03:06:25.059Z,0.00
2018-03-11T03:07:24.931Z,0.00
2018-03-11T03:08:24.805Z,0.00
2018-03-11T03:09:24.673Z,0.00
2018-03-11T03:10:24.542Z,0.00
2018-03-11T03:11:24.415Z,0.00
2018-03-11T03:12:24.283Z,0.00
2018-03-11T03:13:24.153Z,0.00
2018-03-11T03:14:24.026Z,0.00
2018-03-11T03:15:23.898Z,0.00
2018-03-11T03:16:23.766Z,0.00
2018-03-11T03:17:23.637Z,0.00
2018-03-11T03:18:23.506Z,0.00
2018-03-11T03:19:23.377Z,0.00
2018-03-11T03:20:23.252Z,0.00
2018-03-11T03:21:23.123Z,0.00
2018-03-11T03:22:22.990Z,0.00
2018-03-11T03:23:22.864Z,0.00
2018-03-11T03:24:22.732Z,0.00
2018-03-11T03:25:22.602Z,0.00
2018-03-11T03:26:22.477Z,0.00
2018-03-11T03:27:22.346Z,0.00
2018-03-11T03:28:22.216Z,0.00
2018-03-11T03:29:22.087Z,0.00
2018-03-11T03:30:21.957Z,0.00
2018-03-11T03:31:21.831Z,0.00
2018-03-11T03:32:21.703Z,0.00
2018-03-11T03:33:21.571Z,0.00
2018-03-11T03:34:21.440Z,0.00
2018-03-11T03:35:21.312Z,0.00
2018-03-11T03:36:21.186Z,0.00
2018-03-11T03:37:21.054Z,0.00
2018-03-11T03:38:20.925Z,0.00
2018-03-11T03:39:20.797Z,0.00
2018-03-11T03:40:20.670Z,0.00
2018-03-11T03:41:20.536Z,0.00
2018-03-11T03:42:20.408Z,0.00
2018-03-11T03:43:20.282Z,0.00
2018-03-11T03:44:20.152Z,0.00
2018-03-11T03:45:20.025Z,0.00
2018-03-11T03:46:19.893Z,0.00
2018-03-11T03:47:19.767Z,0.00
2018-03-11T03:48:19.638Z,0.00
2018-03-11T03:49:19.517Z,0.00
2018-03-11T03:50:19.379Z,0.00
2018-03-11T03:51:19.249Z,0.00
2018-03-11T03:52:19.122Z,0.00
2018-03-11T03:53:18.993Z,0.00
2018-03-11T03:54:18.863Z,0.00
2018-03-11T03:55:18.736Z,0.00
2018-03-11T03:56:18.609Z,0.00
2018-03-11T03:57:18.478Z,0.00
2018-03-11T03:58:18.350Z,0.00
2018-03-11T03:59:18.220Z,0.00
2018-03-11T04:00:18.091Z,0.00
2018-03-11T04:01:17.964Z,0.00
2018-03-11T04:02:17.835Z,0.00
2018-03-11T04:03:17.705Z,0.00
2018-03-11T04:04:17.577Z,0.00
2018-03-11T04:05:17.452Z,0.00
2018-03-11T04:06:17.319Z,0.00
2018-03-11T04:07:17.189Z,0.00
2018-03-11T04:08:17.062Z,0.00
2018-03-11T04:09:16.932Z,0.00
2018-03-11T04:10:16.804Z,0.00
2018-03-11T04:11:16.681Z,0.00
2018-03-11T04:12:16.551Z,0.00
2018-03-11T04:13:16.418Z,0.00
2018-03-11T04:14:16.286Z,0.00
2018-03-11T04:15:16.160Z,0.00
2018-03-11T04:16:16.031Z,0.00
2018-03-11T04:17:15.902Z,0.00
2018-03-11T04:18:15.774Z,0.00
2018-03-11T04:19:15.642Z,0.00
2018-03-11T04:20:15.516Z,0.00
2018-03-11T04:21:15.388Z,0.00
2018-03-11T04:22:15.255Z,0.00
2018-03-11T04:23:15.130Z,0.00
2018-03-11T04:24:15.000Z,0.00
2018-03-11T04:25:14.869Z,0.00
2018-03-11T04:26:14.745Z,0.00
2018-03-11T04:27:14.611Z,0.00
2018-03-11T04:28:14.485Z,0.00
2018-03-11T04:29:14.356Z,0.00
2018-03-11T04:30:14.241Z,0.00
2018-03-11T04:31:14.099Z,0.00
2018-03-11T04:32:13.969Z,0.00
2018-03-11T04:33:13.838Z,0.00
2018-03-11T04:34:13.711Z,0.00
2018-03-11T04:35:13.583Z,0.00
2018-03-11T04:36:13.453Z,0.00
2018-03-11T04:37:13.324Z,0.00
2018-03-11T04:38:13.195Z,0.00
2018-03-11T04:39:13.064Z,0.00
2018-03-11T04:40:12.939Z,0.00
2018-03-11T04:41:12.812Z,0.00
2018-03-11T04:42:12.678Z,0.00
2018-03-11T04:43:12.553Z,0.00
2018-03-11T04:44:12.423Z,0.00
2018-03-11T04:45:12.294Z,0.00
2018-03-11T04:46:12.165Z,0.00
2018-03-11T04:47:12.038Z,0.00
2018-03-11T04:48:11.908Z,0.00
2018-03-11T04:49:11.780Z,0.00
2018-03-11T04:50:11.651Z,0.00
2018-03-11T04:51:11.526Z,0.00
2018-03-11T04:52:11.395Z,0.00
2018-03-11T04:53:11.268Z,0.00
2018-03-11T04:54:11.140Z,0.00
2018-03-11T04:55:11.017Z,0.00
2018-03-11T04:56:10.879Z,0.00
2018-03-11T04:57:10.753Z,0.00
2018-03-11T04:58:10.626Z,0.00
2018-03-11T04:59:10.496Z,0.00
2018-03-11T05:00:10.369Z,0.00
2018-03-11T05:01:10.242Z,0.00
2018-03-11T05:02:10.113Z,0.00
2018-03-11T05:03:09.985Z,0.00
2018-03-11T05:04:09.853Z,0.00
2018-03-11T05:05:09.726Z,0.00
2018-03-11T05:06:09.596Z,0.00
2018-03-11T05:07:09.468Z,0.00
2018-03-11T05:08:09.341Z,0.00
2018-03-11T05:09:09.211Z,0.00
2018-03-11T05:10:09.083Z,0.00
2018-03-11T05:11:08.957Z,0.00
2018-03-11T05:12:08.826Z,0.00
2018-03-11T05:13:08.695Z,0.00
2018-03-11T05:14:08.569Z,0.00
2018-03-11T05:15:08.438Z,0.00
2018-03-11T05:16:08.312Z,0.00
2018-03-11T05:17:08.182Z,0.00
2018-03-11T05:18:08.059Z,0.00
2018-03-11T05:19:07.922Z,0.00
2018-03-11T05:20:07.794Z,0.00
2018-03-11T05:21:07.664Z,0.00
2018-03-11T05:22:07.537Z,0.00
2018-03-11T05:23:07.407Z,0.00
2018-03-11T05:24:07.280Z,0.00
2018-03-11T05:25:07.148Z,0.00
2018-03-11T05:26:07.018Z,0.00
2018-03-11T05:27:06.892Z,0.00
2018-03-11T05:28:06.770Z,0.00
2018-03-11T05:29:06.634Z,0.00
2018-03-11T05:30:06.503Z,0.00
2018-03-11T05:31:06.375Z,0.00
2018-03-11T05:32:06.260Z,0.00
2018-03-11T05:33:06.119Z,0.00
2018-03-11T05:34:05.987Z,0.00
2018-03-11T05:35:05.863Z,0.00
2018-03-11T05:36:05.729Z,0.00
2018-03-11T05:37:05.600Z,0.00
2018-03-11T05:38:05.475Z,0.00
2018-03-11T05:39:05.343Z,0.00
2018-03-11T05:40:05.216Z,0.00
2018-03-11T05:41:05.084Z,0.00
2018-03-11T05:42:04.955Z,0.00
2018-03-11T05:43:04.825Z,0.00
2018-03-11T05:44:04.698Z,0.00
2018-03-11T05:45:04.569Z,0.00
2018-03-11T05:46:04.442Z,0.00
2018-03-11T05:47:04.328Z,5.63
2018-03-11T05:48:04.182Z,5.63
2018-03-11T05:49:04.053Z,5.63
2018-03-11T05:50:03.925Z,5.63
2018-03-11T05:51:03.793Z,5.63
2018-03-11T05:52:03.663Z,5.63
2018-03-11T05:53:03.536Z,11.25
2018-03-11T05:54:03.409Z,11.25
2018-03-11T05:55:03.278Z,11.25
2018-03-11T05:56:03.149Z,11.25
2018-03-11T05:57:03.021Z,11.25
2018-03-11T05:58:02.896Z,11.25
2018-03-11T05:59:02.761Z,11.25
2018-03-11T06:00:02.635Z,11.25
2018-03-11T06:01:02.507Z,11.25
2018-03-11T06:02:02.375Z,11.25
2018-03-11T06:03:02.245Z,11.25
2018-03-11T06:04:02.118Z,11.25
2018-03-11T06:05:02.027Z,11.25
2018-03-11T06:06:01.858Z,11.25
2018-03-11T06:07:01.730Z,11.25
2018-03-11T06:08:01.603Z,11.25
2018-03-11T06:09:01.473Z,11.25
2018-03-11T06:10:01.347Z,11.25
2018-03-11T06:11:01.214Z,11.25
2018-03-11T06:12:01.085Z,11.25
2018-03-11T06:13:00.957Z,11.25
2018-03-11T06:14:00.827Z,16.88
2018-03-11T06:15:00.698Z,16.88
2018-03-11T06:16:00.570Z,11.25
2018-03-11T06:17:00.440Z,11.25
2018-03-11T06:18:00.309Z,11.25
2018-03-11T06:19:00.183Z,11.25
2018-03-11T06:20:00.057Z,11.25
2018-03-11T06:20:59.925Z,11.25
2018-03-11T06:21:59.795Z,11.25
2018-03-11T06:22:59.667Z,11.25
2018-03-11T06:23:59.541Z,11.25
2018-03-11T06:24:59.410Z,11.25
2018-03-11T06:25:59.293Z,11.25
2018-03-11T06:26:59.155Z,16.88
2018-03-11T06:27:59.027Z,16.88
2018-03-11T06:28:58.899Z,16.88
2018-03-11T06:29:58.778Z,16.88
2018-03-11T06:30:58.641Z,22.50
2018-03-11T06:31:58.511Z,22.50
2018-03-11T06:32:58.385Z,22.50
2018-03-11T06:33:58.253Z,22.50
2018-03-11T06:34:58.130Z,22.50
2018-03-11T06:35:57.995Z,28.13
2018-03-11T06:36:57.868Z,28.13
2018-03-11T06:37:57.747Z,28.13
2018-03-11T06:38:57.638Z,22.50
2018-03-11T06:39:57.482Z,28.13
2018-03-11T06:40:57.355Z,33.75
2018-03-11T06:41:57.226Z,33.75
2018-03-11T06:42:57.098Z,33.75
2018-03-11T06:43:56.970Z,33.75
2018-03-11T06:44:56.837Z,28.13
2018-03-11T06:45:56.717Z,33.75
2018-03-11T06:46:56.581Z,33.75
2018-03-11T06:47:56.452Z,33.75
2018-03-11T06:48:56.327Z,33.75
2018-03-11T06:49:56.196Z,33.75
2018-03-11T06:50:56.068Z,39.38
2018-03-11T06:51:55.943Z,39.38
2018-03-11T06:52:55.810Z,39.38
2018-03-11T06:53:55.683Z,39.38
2018-03-11T06:54:55.554Z,39.38
2018-03-11T06:55:55.429Z,39.38
2018-03-11T06:56:55.300Z,39.38
2018-03-11T06:57:55.169Z,45.00
2018-03-11T06:58:55.040Z,45.00
2018-03-11T06:59:54.924Z,45.00
2018-03-11T07:00:54.785Z,39.38
2018-03-11T07:01:54.654Z,39.38
2018-03-11T07:02:54.526Z,39.38
2018-03-11T07:03:54.398Z,50.63
2018-03-11T07:04:54.277Z,50.63
2018-03-11T07:05:54.142Z,56.25
2018-03-11T07:06:54.012Z,56.25
2018-03-11T07:07:53.890Z,50.63
2018-03-11T07:08:53.981Z,50.63
2018-03-11T07:09:53.632Z,56.25
2018-03-11T07:10:53.542Z,56.25
2018-03-11T07:11:53.375Z,61.88
2018-03-11T07:12:53.248Z,78.75
2018-03-11T07:13:53.142Z,84.38
2018-03-11T07:14:53.128Z,90.00
2018-03-11T07:15:52.865Z,67.50
2018-03-11T07:16:52.734Z,61.88
2018-03-11T07:17:52.605Z,67.50
2018-03-11T07:18:52.476Z,78.75
2018-03-11T07:19:52.370Z,78.75
2018-03-11T07:20:52.221Z,67.50
2018-03-11T07:21:52.094Z,56.25
2018-03-11T07:22:51.966Z,56.25
2018-03-11T07:23:51.874Z,56.25
2018-03-11T07:24:51.711Z,56.25
2018-03-11T07:25:51.584Z,67.50
2018-03-11T07:26:51.456Z,73.13
2018-03-11T07:27:51.325Z,61.88
2018-03-11T07:28:51.197Z,56.25
2018-03-11T07:29:51.091Z,61.88
2018-03-11T07:30:50.946Z,56.25
2018-03-11T07:31:50.815Z,61.88
2018-03-11T07:32:50.687Z,61.88
2018-03-11T07:33:50.557Z,67.50
2018-03-11T07:34:50.493Z,73.13
2018-03-11T07:35:50.311Z,67.50
2018-03-11T07:36:50.190Z,67.50
2018-03-11T07:37:50.048Z,67.50
2018-03-11T07:38:50.043Z,67.50
2018-03-11T07:39:49.801Z,61.88
2018-03-11T07:40:49.667Z,61.88
2018-03-11T07:41:49.538Z,61.88
2018-03-11T07:42:49.407Z,61.88
2018-03-11T07:43:49.384Z,61.88
2018-03-11T07:44:49.185Z,61.88
2018-03-11T07:45:49.027Z,67.50
2018-03-11T07:46:48.901Z,67.50
2018-03-11T07:47:48.774Z,67.50
2018-03-11T07:48:48.645Z,67.50
2018-03-11T07:49:48.518Z,73.13
2018-03-11T07:50:48.429Z,73.13
2018-03-11T07:51:48.263Z,78.75
2018-03-11T07:52:48.136Z,78.75
2018-03-11T07:53:48.008Z,78.75
2018-03-11T07:54:47.878Z,84.38
2018-03-11T07:55:47.754Z,84.38
2018-03-11T07:56:47.631Z,84.38
2018-03-11T07:57:47.499Z,90.00
2018-03-11T07:58:47.372Z,90.00
2018-03-11T07:59:47.244Z,84.38
2018-03-11T08:00:47.118Z,90.00
2018-03-11T08:01:47.017Z,90.00
2018-03-11T08:02:46.860Z,95.63
2018-03-11T08:03:46.737Z,95.63
2018-03-11T08:04:46.630Z,101.25
2018-03-11T08:05:46.615Z,112.50
2018-03-11T08:06:46.365Z,123.75
2018-03-11T08:07:46.225Z,135.00
2018-03-11T08:08:46.097Z,129.38
2018-03-11T08:09:45.971Z,129.38
2018-03-11T08:10:45.849Z,129.38
2018-03-11T08:11:45.715Z,135.00
2018-03-11T08:12:45.595Z,129.38
2018-03-11T08:13:45.464Z,129.38
2018-03-11T08:14:45.339Z,140.63
2018-03-11T08:15:45.210Z,140.63
2018-03-11T08:16:45.082Z,129.38
2018-03-11T08:17:44.955Z,129.38
2018-03-11T08:18:44.834Z,135.00
2018-03-11T08:19:44.701Z,135.00
2018-03-11T08:20:44.576Z,135.00
2018-03-11T08:21:44.450Z,135.00
2018-03-11T08:22:44.332Z,135.00
2018-03-11T08:23:44.196Z,135.00
2018-03-11T08:24:44.069Z,129.38
2018-03-11T08:25:43.945Z,123.75
2018-03-11T08:26:43.818Z,106.88
2018-03-11T08:27:43.692Z,106.88
2018-03-11T08:28:43.566Z,118.13
2018-03-11T08:29:43.438Z,135.00
2018-03-11T08:30:43.317Z,135.00
2018-03-11T08:31:43.188Z,135.00
2018-03-11T08:32:43.062Z,118.13
2018-03-11T08:33:42.934Z,106.88
2018-03-11T08:34:42.810Z,112.50
2018-03-11T08:35:42.682Z,118.13
2018-03-11T08:36:42.557Z,118.13
2018-03-11T08:37:42.433Z,112.50
2018-03-11T08:38:42.307Z,118.13
2018-03-11T08:39:42.179Z,123.75
2018-03-11T08:40:42.057Z,118.13
2018-03-11T08:41:41.929Z,123.75
2018-03-11T08:42:41.802Z,129.38
2018-03-11T08:43:41.678Z,140.63
2018-03-11T08:44:41.552Z,140.63
2018-03-11T08:45:41.424Z,140.63
2018-03-11T08:46:41.300Z,140.63
2018-03-11T08:47:41.181Z,140.63
2018-03-11T08:48:41.052Z,140.63
2018-03-11T08:49:40.924Z,146.25
2018-03-11T08:50:40.808Z,146.25
2018-03-11T08:51:40.672Z,157.50
2018-03-11T08:52:40.549Z,163.13
2018-03-11T08:53:40.422Z,168.75
2018-03-11T08:54:40.298Z,168.75
2018-03-11T08:55:40.173Z,157.50
2018-03-11T08:56:40.050Z,168.75
2018-03-11T08:57:39.925Z,202.50
2018-03-11T08:58:39.799Z,230.63
2018-03-11T08:59:39.687Z,264.38
2018-03-11T09:00:39.852Z,258.75
2018-03-11T09:01:39.422Z,247.50
2018-03-11T09:02:39.300Z,258.75
2018-03-11T09:03:39.174Z,247.50
2018-03-11T09:04:39.050Z,225.00
2018-03-11T09:05:38.923Z,225.00
2018-03-11T09:06:38.799Z,247.50
2018-03-11T09:07:38.678Z,264.38
2018-03-11T09:08:38.549Z,241.88
2018-03-11T09:09:38.491Z,225.00
2018-03-11T09:10:38.347Z,219.38
2018-03-11T09:11:38.175Z,247.50
2018-03-11T09:12:38.056Z,281.25
2018-03-11T09:13:37.964Z,309.38
2018-03-11T09:14:37.806Z,281.25
2018-03-11T09:15:37.690Z,281.25
2018-03-11T09:16:37.557Z,309.38
2018-03-11T09:17:37.433Z,303.75
2018-03-11T09:18:37.340Z,264.38
2018-03-11T09:19:37.186Z,258.75
2018-03-11T09:20:37.059Z,258.75
2018-03-11T09:21:37.181Z,264.38
2018-03-11T09:22:36.817Z,275.63
2018-03-11T09:23:36.688Z,281.25
2018-03-11T09:24:36.562Z,275.63
2018-03-11T09:25:36.523Z,247.50
2018-03-11T09:26:36.401Z,236.25
2018-03-11T09:27:36.197Z,253.13
2018-03-11T09:28:36.072Z,253.13
2018-03-11T09:29:35.944Z,236.25
2018-03-11T09:30:35.820Z,230.63
2018-03-11T09:31:35.699Z,225.00
2018-03-11T09:32:35.576Z,230.63
2018-03-11T09:33:35.448Z,236.25
2018-03-11T09:34:35.325Z,247.50
2018-03-11T09:35:35.200Z,247.50
2018-03-11T09:36:35.075Z,236.25
2018-03-11T09:37:34.950Z,241.88
2018-03-11T09:38:34.828Z,258.75
2018-03-11T09:39:34.704Z,270.00
2018-03-11T09:40:34.578Z,264.38
2018-03-11T09:41:34.524Z,270.00
2018-03-11T09:42:34.347Z,264.38
2018-03-11T09:43:34.205Z,275.63
2018-03-11T09:44:34.082Z,264.38
2018-03-11T09:45:33.955Z,281.25
2018-03-11T09:46:33.844Z,286.88
2018-03-11T09:47:33.712Z,281.25
2018-03-11T09:48:33.585Z,286.88
2018-03-11T09:49:33.462Z,292.50
2018-03-11T09:50:33.337Z,320.63
2018-03-11T09:51:33.220Z,331.88
2018-03-11T09:52:33.109Z,331.88
2018-03-11T09:53:32.968Z,343.13
2018-03-11T09:54:32.869Z,399.38
2018-03-11T09:55:32.815Z,433.13
2018-03-11T09:56:32.600Z,489.38
2018-03-11T09:57:32.478Z,433.13
2018-03-11T09:58:32.403Z,517.50
2018-03-11T09:59:32.228Z,528.75
2018-03-11T10:00:32.104Z,478.13
2018-03-11T10:01:31.979Z,466.88
2018-03-11T10:02:31.856Z,523.13
2018-03-11T10:03:31.734Z,607.50
2018-03-11T10:04:31.610Z,528.75
2018-03-11T10:05:31.486Z,523.13
2018-03-11T10:06:31.414Z,472.50
2018-03-11T10:07:31.247Z,405.00
2018-03-11T10:08:31.121Z,416.25
2018-03-11T10:09:31.000Z,371.25
2018-03-11T10:10:30.876Z,365.63
2018-03-11T10:11:30.752Z,393.75
2018-03-11T10:12:30.630Z,410.63
2018-03-11T10:13:30.570Z,416.25
2018-03-11T10:14:30.388Z,388.13
2018-03-11T10:15:30.264Z,388.13
2018-03-11T10:16:30.146Z,438.75
2018-03-11T10:17:30.023Z,472.50
2018-03-11T10:18:29.900Z,478.13
2018-03-11T10:19:29.780Z,500.63
2018-03-11T10:20:29.657Z,461.25
2018-03-11T10:21:29.533Z,388.13
2018-03-11T10:22:29.413Z,315.00
2018-03-11T10:23:29.294Z,275.63
2018-03-11T10:24:29.172Z,371.25
2018-03-11T10:25:29.048Z,466.88
2018-03-11T10:26:28.928Z,388.13
2018-03-11T10:27:28.805Z,371.25
2018-03-11T10:28:28.685Z,472.50
2018-03-11T10:29:28.606Z,517.50
2018-03-11T10:30:28.441Z,433.13
2018-03-11T10:31:28.320Z,399.38
2018-03-11T10:32:28.200Z,489.38
2018-03-11T10:33:28.077Z,455.63
2018-03-11T10:34:27.956Z,444.38
2018-03-11T10:35:27.835Z,483.75
2018-03-11T10:36:27.715Z,500.63
2018-03-11T10:37:27.594Z,523.13
2018-03-11T10:38:27.475Z,444.38
2018-03-11T10:39:27.351Z,438.75
2018-03-11T10:40:27.230Z,450.00
2018-03-11T10:41:27.110Z,472.50
2018-03-11T10:42:26.991Z,433.13
2018-03-11T10:43:26.908Z,410.63
2018-03-11T10:44:26.781Z,388.13
2018-03-11T10:45:26.628Z,405.00
2018-03-11T10:46:26.502Z,416.25
2018-03-11T10:47:26.381Z,416.25
2018-03-11T10:48:26.260Z,421.88
2018-03-11T10:49:26.140Z,421.88
2018-03-11T10:50:26.022Z,410.63
2018-03-11T10:51:25.895Z,382.50
2018-03-11T10:52:25.771Z,343.13
2018-03-11T10:53:25.650Z,331.88
2018-03-11T10:54:25.532Z,343.13
2018-03-11T10:55:25.405Z,343.13
2018-03-11T10:56:25.353Z,343.13
2018-03-11T10:57:25.160Z,360.00
2018-03-11T10:58:25.037Z,382.50
2018-03-11T10:59:24.917Z,382.50
2018-03-11T11:00:24.811Z,365.63
2018-03-11T11:01:24.743Z,348.75
2018-03-11T11:02:24.553Z,343.13
2018-03-11T11:03:24.426Z,343.13
2018-03-11T11:04:24.303Z,337.50
2018-03-11T11:05:24.183Z,343.13
2018-03-11T11:06:24.058Z,348.75
2018-03-11T11:07:23.937Z,348.75
2018-03-11T11:08:23.828Z,348.75
2018-03-11T11:09:24.183Z,348.75
2018-03-11T11:10:23.566Z,360.00
2018-03-11T11:11:23.449Z,360.00
2018-03-11T11:12:23.324Z,354.38
2018-03-11T11:13:23.197Z,354.38
2018-03-11T11:14:23.079Z,348.75
2018-03-11T11:15:22.953Z,343.13
2018-03-11T11:16:22.830Z,337.50
2018-03-11T11:17:22.710Z,348.75
2018-03-11T11:18:22.585Z,337.50
2018-03-11T11:19:22.464Z,315.00
2018-03-11T11:20:22.338Z,298.13
2018-03-11T11:21:22.236Z,298.13
2018-03-11T11:22:22.096Z,309.38
2018-03-11T11:23:21.969Z,331.88
2018-03-11T11:24:21.845Z,348.75
2018-03-11T11:25:21.725Z,388.13
2018-03-11T11:26:21.600Z,421.88
2018-03-11T11:27:21.477Z,438.75
2018-03-11T11:28:21.354Z,410.63
2018-03-11T11:29:21.237Z,376.88
2018-03-11T11:30:21.111Z,331.88
2018-03-11T11:31:20.984Z,309.38
2018-03-11T11:32:20.863Z,320.63
2018-03-11T11:33:20.740Z,360.00
2018-03-11T11:34:20.613Z,405.00
2018-03-11T11:35:20.490Z,478.13
2018-03-11T11:36:20.370Z,528.75
2018-03-11T11:37:20.246Z,568.13
2018-03-11T11:38:20.120Z,545.63
2018-03-11T11:39:20.001Z,506.25
2018-03-11T11:40:19.878Z,472.50
2018-03-11T11:41:19.753Z,455.63
2018-03-11T11:42:19.628Z,478.13
2018-03-11T11:43:19.506Z,528.75
2018-03-11T11:44:19.385Z,556.88
2018-03-11T11:45:19.263Z,562.50
2018-03-11T11:46:19.142Z,551.25
2018-03-11T11:47:19.018Z,506.25
2018-03-11T11:48:18.892Z,466.88
2018-03-11T11:49:18.772Z,427.50
2018-03-11T11:50:18.648Z,393.75
2018-03-11T11:51:18.526Z,382.50
2018-03-11T11:52:18.405Z,388.13
2018-03-11T11:53:18.300Z,399.38
2018-03-11T11:54:18.159Z,421.88
2018-03-11T11:55:18.039Z,455.63
2018-03-11T11:56:17.912Z,450.00
2018-03-11T11:57:17.789Z,438.75
2018-03-11T11:58:17.667Z,450.00
2018-03-11T11:59:17.542Z,478.13
2018-03-11T12:00:17.422Z,495.00
2018-03-11T12:01:17.296Z,489.38
2018-03-11T12:02:17.172Z,472.50
2018-03-11T12:03:17.050Z,433.13
2018-03-11T12:04:16.931Z,393.75
2018-03-11T12:05:16.809Z,371.25
2018-03-11T12:06:16.684Z,371.25
2018-03-11T12:07:16.560Z,360.00
